Time;durP1;ratioP1;P1;durP2;ratioP2;P2;SDS_P1;SDS_P2;PMS_P1;PMS_P2;Temp;Humidity;BMP_temperature;BMP_pressure;BME280_temperature;BME280_humidity;BME280_pressure;Samples;Min_cycle;Max_cycle;Signal;HPM_P1;HPM_P2
2023/01/15 00:01:31;;;;;;;;;3.25;1.00;;;;;9.28;81.78;99937.97;5110191;27;45475;-62
2023/01/15 00:04:01;;;;;;;;;0.50;0.50;;;;;9.34;82.51;99962.31;5088929;27;47504;-62
2023/01/15 00:06:27;;;;;;;;;2.25;1.25;;;;;9.35;82.05;99971.97;5092805;27;45583;-61
2023/01/15 00:08:53;;;;;;;;;0.00;0.00;;;;;9.31;80.93;99959.84;5100502;27;45436;-62
2023/01/15 00:11:19;;;;;;;;;1.00;1.00;;;;;9.27;81.26;99947.72;5110461;27;45448;-61
2023/01/15 00:13:45;;;;;;;;;1.50;0.00;;;;;9.38;81.54;99957.69;5082208;27;46073;-63
2023/01/15 00:16:22;;;;;;;;;1.50;1.00;;;;;9.38;80.63;99952.38;5110164;27;45551;-61
2023/01/15 00:18:53;;;;;;;;;0.00;0.00;;;;;9.40;80.60;99967.25;5100512;27;45429;-59
2023/01/15 00:21:20;;;;;;;;;0.00;0.00;;;;;9.35;80.03;99966.69;5102958;27;45494;-60
2023/01/15 00:29:15;;;;;;;;;2.50;0.00;;;;;9.34;79.48;99953.50;5098946;27;45485;-61
2023/01/15 00:31:43;;;;;;;;;0.00;0.00;;;;;9.31;79.54;99954.53;5098919;27;45627;-60
2023/01/15 00:34:08;;;;;;;;;0.00;0.00;;;;;9.38;79.70;99974.47;5092239;27;45430;-60
2023/01/15 00:36:36;;;;;;;;;0.00;0.00;;;;;9.36;80.57;99965.72;5087206;27;45352;-60
2023/01/15 00:39:03;;;;;;;;;0.00;0.00;;;;;9.37;79.52;99970.09;5108919;27;45346;-61
2023/01/15 00:41:28;;;;;;;;;0.00;0.00;;;;;9.34;78.96;99956.16;5078411;27;45289;-60
2023/01/15 00:43:54;;;;;;;;;0.00;0.00;;;;;9.29;79.88;99955.59;5076279;27;47091;-61
2023/01/15 00:46:22;;;;;;;;;2.00;1.00;;;;;9.36;79.90;99957.75;5085316;27;45335;-61
2023/01/15 00:48:48;;;;;;;;;0.00;0.00;;;;;9.36;78.88;99968.38;5115154;27;45326;-60
2023/01/15 00:51:14;;;;;;;;;0.00;0.00;;;;;9.30;79.21;99960.81;5087949;27;45544;-61
2023/01/15 00:53:39;;;;;;;;;0.00;0.00;;;;;9.33;79.21;99963.25;5082840;27;46007;-62
2023/01/15 00:56:05;;;;;;;;;1.50;0.00;;;;;9.31;79.32;99964.31;5109932;27;45299;-60
2023/01/15 00:58:30;;;;;;;;;0.00;0.00;;;;;9.27;78.64;99946.88;5135363;27;45406;-60
2023/01/15 01:00:59;;;;;;;;;0.50;0.50;;;;;9.26;79.86;99946.03;5110042;27;45577;-60
2023/01/15 01:03:26;;;;;;;;;2.00;0.00;;;;;9.33;78.84;99960.59;5082863;27;45256;-60
2023/01/15 01:05:51;;;;;;;;;0.00;0.00;;;;;9.36;79.65;99968.38;5098650;27;45235;-64
2023/01/15 01:08:17;;;;;;;;;2.00;0.00;;;;;9.35;78.98;99956.06;5093225;27;45410;-61
2023/01/15 01:10:43;;;;;;;;;0.00;0.00;;;;;9.32;79.25;99947.44;5098714;27;45337;-60
2023/01/15 01:13:09;;;;;;;;;0.00;0.00;;;;;9.38;79.75;99945.28;5085526;27;45392;-60
2023/01/15 01:15:36;;;;;;;;;0.00;0.00;;;;;9.37;78.72;99950.66;5077942;27;45458;-62
2023/01/15 01:18:03;;;;;;;;;0.00;0.00;;;;;9.37;78.23;99956.81;5084351;27;45476;-60
2023/01/15 01:20:29;;;;;;;;;0.00;0.00;;;;;9.36;78.94;99957.75;5095122;27;45313;-59
2023/01/15 01:22:54;;;;;;;;;0.00;0.00;;;;;9.31;78.50;99959.00;5078174;27;45350;-64
2023/01/15 01:25:20;;;;;;;;;1.00;1.00;;;;;9.35;78.54;99977.28;5114724;27;45210;-60
2023/01/15 01:27:46;;;;;;;;;0.00;0.00;;;;;9.32;78.77;99972.16;5112206;27;45575;-60
2023/01/15 01:30:12;;;;;;;;;0.50;0.00;;;;;9.35;79.14;99963.16;5093477;27;45704;-60
2023/01/15 01:32:38;;;;;;;;;1.50;0.00;;;;;9.32;78.29;99956.25;5078780;27;46497;-60
2023/01/15 01:35:04;;;;;;;;;3.00;0.00;;;;;9.30;77.41;99958.16;5102362;27;45328;-59
2023/01/15 01:37:30;;;;;;;;;1.50;0.00;;;;;9.22;77.26;99965.72;5092899;27;45442;-64
2023/01/15 01:39:55;;;;;;;;;0.00;0.00;;;;;9.26;77.44;99980.53;5096845;27;45500;-60
2023/01/15 01:42:21;;;;;;;;;0.00;0.00;;;;;9.25;78.07;99984.13;5096661;27;45478;-59
2023/01/15 01:44:46;;;;;;;;;0.00;0.00;;;;;9.29;78.15;99982.13;5089023;27;45424;-59
2023/01/15 01:47:22;;;;;;;;;0.00;0.00;;;;;9.24;77.19;99968.25;5088686;27;45450;-60
2023/01/15 01:49:56;;;;;;;;;0.00;0.00;;;;;9.24;75.95;99978.88;5103234;27;45620;-61
2023/01/15 01:52:26;;;;;;;;;0.00;0.00;;;;;9.23;77.59;99983.34;5101973;27;45376;-59
2023/01/15 01:54:52;;;;;;;;;0.00;0.00;;;;;9.25;77.80;99980.63;5099129;27;45250;-61
2023/01/15 01:57:20;;;;;;;;;0.00;0.00;;;;;9.18;76.84;99966.84;5089448;27;45712;-62
2023/01/15 01:59:46;;;;;;;;;0.00;0.00;;;;;9.23;76.63;99987.78;5097491;27;45461;-61
2023/01/15 02:02:12;;;;;;;;;0.25;0.00;;;;;9.19;77.55;99986.28;5117663;27;47293;-61
2023/01/15 02:04:38;;;;;;;;;0.00;0.00;;;;;9.22;76.25;99978.97;5122886;27;45375;-61
2023/01/15 02:07:04;;;;;;;;;1.00;0.00;;;;;9.18;75.55;99973.97;5104399;27;45357;-59
2023/01/15 02:09:30;;;;;;;;;0.00;0.00;;;;;9.24;76.72;99987.69;5118952;27;45657;-60
2023/01/15 02:12:02;;;;;;;;;0.00;0.00;;;;;9.25;76.11;99986.78;5108816;27;45598;-60
2023/01/15 02:14:41;;;;;;;;;0.00;0.00;;;;;9.23;75.44;99999.25;5086519;27;45486;-59
2023/01/15 02:17:22;;;;;;;;;0.00;0.00;;;;;9.20;77.15;100006.56;5101281;27;45510;-60
2023/01/15 02:20:13;;;;;;;;;1.00;0.00;;;;;9.17;75.91;100018.22;5097397;27;45487;-61
2023/01/15 02:23:31;;;;;;;;;3.00;0.00;;;;;9.10;76.15;99995.63;5095952;27;46799;-62
2023/01/15 02:26:09;;;;;;;;;0.00;0.00;;;;;9.20;76.27;100010.06;5134114;27;45857;-61
2023/01/15 02:28:37;;;;;;;;;1.75;0.00;;;;;9.20;76.19;100023.31;5086283;27;45432;-59
2023/01/15 02:31:39;;;;;;;;;0.00;0.00;;;;;9.21;76.63;100014.41;5088625;27;46804;-60
2023/01/15 02:34:24;;;;;;;;;0.00;0.00;;;;;9.21;76.00;100050.69;5089811;27;46382;-64
2023/01/15 02:37:07;;;;;;;;;0.00;0.00;;;;;9.18;76.10;100022.56;5090054;27;45423;-61
2023/01/15 02:39:36;;;;;;;;;0.00;0.00;;;;;9.18;76.15;100022.56;5090524;27;45359;-61
2023/01/15 02:42:04;;;;;;;;;0.00;0.00;;;;;9.12;76.76;100025.59;5092517;27;45363;-60
2023/01/15 02:44:35;;;;;;;;;0.50;0.00;;;;;9.14;76.72;100047.56;5099957;27;45435;-61
2023/01/15 02:47:03;;;;;;;;;0.00;0.00;;;;;9.15;75.70;100028.06;5103518;27;45437;-61
2023/01/15 02:49:31;;;;;;;;;0.00;0.00;;;;;9.08;76.03;100026.69;5092911;27;45516;-59
2023/01/15 02:52:08;;;;;;;;;0.00;0.00;;;;;9.15;74.95;100041.31;5095434;27;45546;-60
2023/01/15 02:54:46;;;;;;;;;0.00;0.00;;;;;9.16;76.34;100046.53;5117045;27;45468;-60
2023/01/15 02:57:15;;;;;;;;;0.00;0.00;;;;;9.18;76.04;100040.28;5105966;27;45198;-60
2023/01/15 02:59:45;;;;;;;;;0.75;0.00;;;;;9.16;76.37;100051.00;5116790;27;45351;-60
2023/01/15 03:02:17;;;;;;;;;0.00;0.00;;;;;9.19;77.40;100045.50;5090491;27;45599;-61
2023/01/15 03:04:47;;;;;;;;;0.00;0.00;;;;;9.14;76.40;100064.34;5076097;27;45444;-61
2023/01/15 03:07:43;;;;;;;;;2.00;0.00;;;;;9.07;75.95;100062.13;5099315;27;45954;-60
2023/01/15 03:10:09;;;;;;;;;0.00;0.00;;;;;9.08;76.00;100069.13;5091880;27;45293;-60
2023/01/15 03:13:01;;;;;;;;;1.00;0.00;;;;;9.04;76.56;100065.81;5102315;27;45565;-59
2023/01/15 03:18:20;;;;;;;;;2.75;0.00;;;;;9.00;76.18;100071.41;5084770;27;45305;-59
2023/01/15 03:20:51;;;;;;;;;0.00;0.00;;;;;9.00;76.01;100068.75;5100665;27;45460;-62
2023/01/15 03:23:22;;;;;;;;;0.00;0.00;;;;;8.97;76.33;100063.59;5096429;27;45487;-60
2023/01/15 03:25:49;;;;;;;;;0.00;0.00;;;;;8.93;76.55;100075.34;5117235;27;45346;-60
2023/01/15 03:28:22;;;;;;;;;0.00;0.00;;;;;8.93;76.76;100072.69;5084500;27;45439;-59
2023/01/15 03:30:48;;;;;;;;;0.00;0.00;;;;;8.84;78.07;100071.41;5076297;28;45357;-61
2023/01/15 03:33:14;;;;;;;;;1.00;0.00;;;;;8.90;77.70;100091.44;5090656;27;45653;-59
2023/01/15 03:35:58;;;;;;;;;1.25;0.00;;;;;8.89;77.05;100081.75;5091321;27;47124;-59
2023/01/15 03:38:34;;;;;;;;;0.00;0.00;;;;;8.83;76.11;100059.94;5100285;27;45473;-60
2023/01/15 03:41:23;;;;;;;;;0.00;0.00;;;;;8.76;76.52;100074.50;5116932;27;45456;-60
2023/01/15 03:44:01;;;;;;;;;0.75;0.00;;;;;8.76;76.34;100078.97;5111094;27;45409;-59
2023/01/15 03:46:45;;;;;;;;;0.00;0.00;;;;;8.69;76.03;100062.53;5113711;27;46701;-59
2023/01/15 03:49:10;;;;;;;;;0.25;0.00;;;;;8.68;75.34;100050.22;5082544;27;45233;-59
2023/01/15 03:51:48;;;;;;;;;0.00;0.00;;;;;8.63;75.53;100051.44;5086776;27;45334;-60
2023/01/15 03:54:22;;;;;;;;;0.00;0.00;;;;;8.64;76.06;100061.94;5087033;27;45384;-60
2023/01/15 03:57:21;;;;;;;;;1.00;0.00;;;;;8.65;76.06;100052.19;5089910;27;46833;-61
2023/01/15 03:59:54;;;;;;;;;0.00;0.00;;;;;8.63;76.54;100068.19;5072850;27;45612;-62
2023/01/15 04:02:23;;;;;;;;;0.00;0.00;;;;;8.58;75.58;100070.22;5108146;27;45402;-62
2023/01/15 04:04:51;;;;;;;;;0.00;0.00;;;;;8.53;75.87;100056.38;5101104;27;45436;-60
2023/01/15 04:07:16;;;;;;;;;0.00;0.00;;;;;8.61;75.78;100064.78;5097046;27;45385;-61
2023/01/15 04:09:42;;;;;;;;;7.00;0.00;;;;;8.62;75.30;100062.97;5096697;27;45393;-61
2023/01/15 04:12:07;;;;;;;;;0.00;0.00;;;;;8.56;75.88;100058.84;5095922;27;45423;-61
2023/01/15 04:14:33;;;;;;;;;1.00;0.00;;;;;8.62;75.66;100033.81;5136047;27;45570;-60
2023/01/15 04:16:59;;;;;;;;;0.00;0.00;;;;;8.58;73.82;100043.72;5100591;27;46516;-60
2023/01/15 04:19:24;;;;;;;;;0.25;0.00;;;;;8.54;74.64;100028.94;5119153;27;45439;-60
2023/01/15 04:21:50;;;;;;;;;0.00;0.00;;;;;8.50;74.25;100027.41;5084787;27;45544;-61
2023/01/15 04:24:15;;;;;;;;;0.00;0.00;;;;;8.54;72.95;100027.16;5085425;27;45459;-60
2023/01/15 04:26:41;;;;;;;;;0.00;0.00;;;;;8.53;74.34;100033.38;5100964;27;45691;-62
2023/01/15 04:29:06;;;;;;;;;0.50;0.00;;;;;8.55;73.94;100046.56;5096542;27;45452;-60
2023/01/15 04:31:32;;;;;;;;;0.00;0.00;;;;;8.53;74.25;100045.78;5102538;27;45396;-61
2023/01/15 04:33:58;;;;;;;;;0.00;0.00;;;;;8.51;73.44;100052.97;5099626;27;45483;-60
2023/01/15 04:36:24;;;;;;;;;0.00;0.00;;;;;8.50;73.17;100048.63;5110480;27;45393;-60
2023/01/15 04:38:49;;;;;;;;;0.00;0.00;;;;;8.51;73.33;100059.13;5082688;27;45224;-61
2023/01/15 04:44:08;;;;;;;;;0.00;0.00;;;;;8.48;72.64;100072.56;5083873;27;45345;-61
2023/01/15 04:46:44;;;;;;;;;1.00;0.00;;;;;8.47;72.62;100077.94;5086318;27;46101;-61
2023/01/15 04:49:15;;;;;;;;;1.00;0.00;;;;;8.40;72.54;100072.13;5091310;27;45487;-60
2023/01/15 04:51:42;;;;;;;;;0.00;0.00;;;;;8.42;71.54;100072.88;5098149;27;45455;-61
2023/01/15 04:54:09;;;;;;;;;2.00;0.00;;;;;8.38;72.54;100070.50;5089075;27;45591;-61
2023/01/15 04:56:43;;;;;;;;;0.00;0.00;;;;;8.34;71.57;100072.47;5089002;27;46355;-60
2023/01/15 04:59:09;;;;;;;;;0.00;0.00;;;;;8.37;71.81;100077.59;5101303;27;45315;-61
2023/01/15 05:01:36;;;;;;;;;0.00;0.00;;;;;8.37;71.16;100087.34;5097793;27;45240;-60
2023/01/15 05:04:01;;;;;;;;;1.00;0.00;;;;;8.35;70.92;100089.22;5095991;27;45676;-62
2023/01/15 05:06:27;;;;;;;;;0.00;0.00;;;;;8.36;71.63;100082.97;5102186;27;45400;-60
2023/01/15 05:08:53;;;;;;;;;2.00;0.00;;;;;8.33;71.87;100081.28;5118581;27;45592;-61
2023/01/15 05:11:18;;;;;;;;;0.00;0.00;;;;;8.35;70.88;100082.13;5085656;27;45245;-60
2023/01/15 05:13:44;;;;;;;;;1.00;0.00;;;;;8.36;70.51;100097.09;5118934;27;45267;-61
2023/01/15 05:16:11;;;;;;;;;0.00;0.00;;;;;8.29;71.14;100098.31;5090348;27;46298;-60
2023/01/15 05:18:37;;;;;;;;;0.00;0.00;;;;;8.31;70.17;100106.16;5104484;27;45398;-60
2023/01/15 05:21:03;;;;;;;;;0.00;0.00;;;;;8.32;71.22;100099.94;5078486;27;45492;-59
2023/01/15 05:23:28;;;;;;;;;0.50;0.00;;;;;8.17;70.51;100085.72;5078308;27;45420;-60
2023/01/15 05:25:54;;;;;;;;;0.00;0.00;;;;;8.26;68.85;100107.28;5081714;27;45522;-60
2023/01/15 05:28:19;;;;;;;;;0.00;0.00;;;;;8.27;69.91;100109.00;5117110;27;45455;-60
2023/01/15 05:30:44;;;;;;;;;1.00;1.00;;;;;8.29;69.32;100101.81;5134548;27;45476;-59
2023/01/15 05:33:10;;;;;;;;;0.00;0.00;;;;;8.32;69.37;100105.22;5096465;27;45420;-62
2023/01/15 05:35:35;;;;;;;;;0.00;0.00;;;;;8.29;68.49;100106.25;5096032;27;46437;-60
2023/01/15 05:38:02;;;;;;;;;0.00;0.00;;;;;8.24;69.61;100110.97;5088767;27;45305;-60
2023/01/15 05:40:28;;;;;;;;;1.00;0.00;;;;;8.25;68.40;100117.97;5097156;27;45467;-61
2023/01/15 05:42:53;;;;;;;;;0.00;0.00;;;;;8.27;68.83;100124.88;5101395;27;45592;-62
2023/01/15 05:45:21;;;;;;;;;0.00;0.00;;;;;8.28;68.15;100131.03;5097682;27;45452;-61
2023/01/15 05:47:47;;;;;;;;;0.00;0.00;;;;;8.23;68.56;100119.84;5094907;27;46069;-61
2023/01/15 05:50:12;;;;;;;;;0.00;0.00;;;;;8.20;68.94;100123.53;5101183;27;45847;-60
2023/01/15 05:52:38;;;;;;;;;1.50;0.00;;;;;8.26;68.87;100130.28;5091040;27;45590;-60
2023/01/15 05:55:03;;;;;;;;;0.00;0.00;;;;;8.25;69.22;100137.38;5094077;27;45520;-59
2023/01/15 05:57:31;;;;;;;;;0.00;0.00;;;;;8.24;69.03;100133.00;5106594;27;45260;-60
2023/01/15 05:59:57;;;;;;;;;0.75;0.00;;;;;8.21;67.86;100135.81;5094154;27;45396;-62
2023/01/15 06:02:22;;;;;;;;;0.00;0.00;;;;;8.20;68.13;100136.78;5098896;27;45263;-59
2023/01/15 06:04:48;;;;;;;;;0.00;0.00;;;;;8.14;68.65;100139.72;5104271;27;46169;-61
2023/01/15 06:07:13;;;;;;;;;0.00;0.00;;;;;8.14;68.94;100144.16;5109326;27;45455;-60
2023/01/15 06:09:38;;;;;;;;;0.00;0.00;;;;;8.13;68.95;100156.56;5098029;27;45224;-60
2023/01/15 06:12:04;;;;;;;;;1.25;0.00;;;;;8.09;67.76;100152.38;5102803;27;45816;-60
2023/01/15 06:14:29;;;;;;;;;0.00;0.00;;;;;8.04;67.48;100167.63;5122725;27;45330;-60
2023/01/15 06:16:55;;;;;;;;;0.00;0.00;;;;;7.96;67.19;100164.53;5078699;27;45459;-60
2023/01/15 06:19:20;;;;;;;;;1.75;0.00;;;;;7.98;66.78;100174.09;5077703;27;45294;-61
2023/01/15 06:21:46;;;;;;;;;0.00;0.00;;;;;7.96;68.04;100172.47;5103054;27;45621;-61
2023/01/15 06:24:11;;;;;;;;;0.00;0.00;;;;;7.92;67.74;100165.63;5100927;27;46040;-60
2023/01/15 06:26:38;;;;;;;;;0.00;0.00;;;;;7.93;67.92;100188.50;5090645;27;45471;-60
2023/01/15 06:29:03;;;;;;;;;0.00;0.00;;;;;7.89;67.54;100179.88;5117754;27;45294;-61
2023/01/15 06:31:29;;;;;;;;;0.75;0.00;;;;;7.92;68.52;100177.06;5085912;27;45562;-60
2023/01/15 06:33:55;;;;;;;;;0.00;0.00;;;;;7.92;68.76;100181.50;5075797;27;46488;-59
2023/01/15 06:36:23;;;;;;;;;0.00;0.00;;;;;7.83;68.26;100166.97;5104991;27;45555;-61
2023/01/15 06:38:49;;;;;;;;;0.00;0.00;;;;;7.87;67.62;100189.69;5096814;27;45462;-60
2023/01/15 06:49:33;;;;;;;;;0.00;0.00;;;;;7.73;68.13;100207.22;5076030;27;45252;-60
2023/01/15 06:51:59;;;;;;;;;0.00;0.00;;;;;7.71;67.79;100223.19;5100261;27;45559;-61
2023/01/15 06:54:25;;;;;;;;;0.00;0.00;;;;;7.66;68.49;100228.69;5108624;27;45273;-60
2023/01/15 06:56:50;;;;;;;;;1.00;0.00;;;;;7.65;67.70;100232.25;5109025;27;45284;-60
2023/01/15 06:59:16;;;;;;;;;0.00;0.00;;;;;7.61;68.14;100220.13;5079044;27;45357;-61
2023/01/15 07:01:42;;;;;;;;;0.00;0.00;;;;;7.66;67.81;100238.41;5083819;27;45856;-62
2023/01/15 07:04:07;;;;;;;;;0.00;0.00;;;;;7.64;68.03;100253.50;5094286;27;47720;-61
2023/01/15 07:06:33;;;;;;;;;0.00;0.00;;;;;7.61;68.06;100267.75;5115251;27;45363;-61
2023/01/15 07:08:58;;;;;;;;;1.00;0.00;;;;;7.57;69.53;100260.91;5086478;27;45278;-60
2023/01/15 07:11:24;;;;;;;;;0.00;0.00;;;;;7.55;68.05;100257.50;5092264;27;45444;-60
2023/01/15 07:13:49;;;;;;;;;0.00;0.00;;;;;7.50;67.55;100259.47;5101866;27;47440;-61
2023/01/15 07:16:27;;;;;;;;;0.75;0.00;;;;;7.38;68.47;100233.63;5096106;27;45527;-61
2023/01/15 07:18:55;;;;;;;;;0.25;0.00;;;;;7.46;68.48;100252.63;5092508;27;45515;-61
2023/01/15 07:21:21;;;;;;;;;0.00;0.00;;;;;7.39;68.71;100259.16;5091870;27;45475;-61
2023/01/15 07:23:47;;;;;;;;;0.00;0.00;;;;;7.28;67.44;100237.63;5079928;27;45650;-62
2023/01/15 07:26:12;;;;;;;;;0.00;0.00;;;;;7.33;68.73;100262.94;5105802;27;45452;-61
2023/01/15 07:28:37;;;;;;;;;0.00;0.00;;;;;7.33;68.87;100286.75;5120264;27;52482;-61
2023/01/15 07:31:03;;;;;;;;;0.00;0.00;;;;;7.29;68.34;100276.38;5092595;27;45596;-60
2023/01/15 07:33:28;;;;;;;;;0.00;0.00;;;;;7.25;68.57;100280.09;5103157;27;46205;-60
2023/01/15 07:35:55;;;;;;;;;0.00;0.00;;;;;7.26;68.86;100282.69;5098331;27;45537;-62
2023/01/15 07:38:21;;;;;;;;;0.00;0.00;;;;;7.27;68.32;100291.47;5120581;27;45445;-61
2023/01/15 07:49:44;;;;;;;;;0.50;0.00;;;;;7.28;68.42;100286.09;5087430;27;45372;-65
2023/01/15 07:51:43;;;;;;;;;0.00;0.00;;;;;7.19;69.03;100264.53;5094910;27;45388;-64
2023/01/15 07:54:10;;;;;;;;;0.75;0.00;;;;;7.15;69.31;100263.81;5084083;27;46225;-65
2023/01/15 07:56:36;;;;;;;;;0.50;0.00;;;;;7.17;69.26;100258.47;5093034;27;45598;-63
2023/01/15 07:59:01;;;;;;;;;0.00;0.00;;;;;7.18;68.79;100273.41;5101220;27;45562;-61
2023/01/15 08:01:26;;;;;;;;;0.00;0.00;;;;;7.14;68.97;100272.66;5102690;27;45379;-64
2023/01/15 08:03:52;;;;;;;;;0.00;0.00;;;;;7.10;69.13;100255.25;5098218;27;45511;-63
2023/01/15 08:06:17;;;;;;;;;0.75;0.00;;;;;7.23;69.43;100282.81;5104255;27;45589;-64
2023/01/15 08:08:42;;;;;;;;;0.50;0.00;;;;;7.12;68.95;100247.25;5100825;27;45425;-63
2023/01/15 08:16:35;;;;;;;;;0.00;0.00;;;;;7.25;69.35;100274.81;5106856;27;45526;-66
2023/01/15 08:19:01;;;;;;;;;0.00;0.00;;;;;7.29;69.21;100279.03;5089336;27;45543;-62
2023/01/15 08:21:27;;;;;;;;;0.00;0.00;;;;;7.31;68.89;100274.53;5089102;27;46982;-62
2023/01/15 08:23:53;;;;;;;;;0.00;0.00;;;;;7.26;68.67;100276.53;5093812;27;46043;-63
2023/01/15 08:26:18;;;;;;;;;0.00;0.00;;;;;7.29;69.15;100268.44;5099059;27;45448;-63
2023/01/15 08:28:44;;;;;;;;;0.00;0.00;;;;;7.30;69.20;100267.53;5095706;27;47518;-62
2023/01/15 08:31:09;;;;;;;;;0.00;0.00;;;;;7.32;69.46;100270.97;5086776;27;45442;-62
2023/01/15 08:33:35;;;;;;;;;0.00;0.00;;;;;7.27;68.93;100283.53;5087951;27;45320;-61
2023/01/15 08:36:00;;;;;;;;;0.00;0.00;;;;;7.36;68.97;100298.97;5101680;27;45631;-64
2023/01/15 08:38:25;;;;;;;;;0.00;0.00;;;;;7.37;68.39;100290.09;5089928;27;45757;-64
2023/01/15 08:40:57;;;;;;;;;0.00;0.00;;;;;7.38;69.53;100294.47;5080373;27;45595;-65
2023/01/15 08:43:24;;;;;;;;;0.00;0.00;;;;;7.26;69.17;100268.59;5081964;27;46048;-59
2023/01/15 08:45:50;;;;;;;;;1.00;0.00;;;;;7.40;68.27;100289.97;5083370;27;45413;-61
2023/01/15 08:48:15;;;;;;;;;1.00;0.00;;;;;7.41;68.94;100278.44;5089885;27;45346;-62
2023/01/15 08:50:40;;;;;;;;;0.00;0.00;;;;;7.41;68.65;100281.09;5082196;27;45221;-63
2023/01/15 08:53:06;;;;;;;;;0.00;0.00;;;;;7.45;67.88;100277.38;5079268;27;45873;-63
2023/01/15 08:55:31;;;;;;;;;0.00;0.00;;;;;7.46;67.98;100279.09;5083738;27;45484;-65
2023/01/15 08:57:57;;;;;;;;;0.00;0.00;;;;;7.53;68.13;100277.84;5086605;27;45273;-64
2023/01/15 09:00:23;;;;;;;;;1.00;0.25;;;;;7.60;66.65;100275.78;5094814;27;46143;-65
2023/01/15 09:02:49;;;;;;;;;0.00;0.00;;;;;7.61;67.45;100256.31;5079864;27;46428;-60
2023/01/15 09:05:15;;;;;;;;;0.75;0.75;;;;;7.66;65.97;100265.72;5090116;27;45400;-64
2023/01/15 09:07:40;;;;;;;;;0.00;0.00;;;;;7.64;65.94;100270.25;5080905;27;45487;-65
2023/01/15 09:10:06;;;;;;;;;0.00;0.00;;;;;7.79;67.05;100273.06;5078559;27;45313;-65
2023/01/15 09:12:31;;;;;;;;;0.00;0.00;;;;;7.62;66.35;100244.81;5081833;27;45431;-65
2023/01/15 09:14:57;;;;;;;;;0.00;0.00;;;;;7.79;65.85;100275.72;5096020;27;45414;-64
2023/01/15 09:17:22;;;;;;;;;0.00;0.00;;;;;7.80;64.96;100278.28;5112189;27;45707;-66
2023/01/15 09:19:48;;;;;;;;;0.00;0.00;;;;;7.84;66.25;100279.00;5085057;27;45519;-65
2023/01/15 09:22:13;;;;;;;;;0.00;0.00;;;;;7.83;64.51;100288.75;5093327;27;45443;-65
2023/01/15 09:24:38;;;;;;;;;2.00;0.00;;;;;7.84;64.64;100290.47;5080566;27;45444;-66
2023/01/15 09:27:04;;;;;;;;;2.00;0.25;;;;;7.89;65.27;100290.22;5091902;27;46676;-65
2023/01/15 09:29:29;;;;;;;;;0.75;0.75;;;;;7.85;65.68;100270.13;5079616;27;45519;-66
2023/01/15 09:31:55;;;;;;;;;2.00;0.75;;;;;7.87;64.49;100278.84;5095480;27;45242;-63
2023/01/15 09:34:20;;;;;;;;;1.00;0.00;;;;;8.01;65.37;100296.69;5084620;27;45539;-64
2023/01/15 09:36:46;;;;;;;;;0.00;0.00;;;;;7.91;63.97;100275.97;5077695;27;45325;-64
2023/01/15 09:39:11;;;;;;;;;1.00;0.00;;;;;7.96;65.31;100287.19;5078501;27;45582;-61
2023/01/15 09:42:05;;;;;;;;;0.50;0.50;;;;;8.03;64.17;100273.63;5077102;27;46009;-62
2023/01/15 09:45:04;;;;;;;;;0.00;0.00;;;;;8.00;64.26;100298.50;5075824;27;45504;-62
2023/01/15 09:47:46;;;;;;;;;0.00;0.00;;;;;7.94;63.11;100280.25;5086666;27;45866;-62
2023/01/15 09:50:20;;;;;;;;;2.00;0.00;;;;;8.05;63.66;100301.75;5087358;27;45321;-61
2023/01/15 09:53:06;;;;;;;;;0.00;0.00;;;;;8.04;63.58;100297.41;5087081;27;45540;-61
2023/01/15 09:55:39;;;;;;;;;0.00;0.00;;;;;8.16;63.33;100302.06;5101161;27;45799;-63
2023/01/15 09:58:09;;;;;;;;;0.00;0.00;;;;;8.19;64.67;100291.31;5096089;27;45376;-61
2023/01/15 10:00:42;;;;;;;;;1.75;0.25;;;;;8.21;63.89;100297.41;5078913;27;45369;-63
2023/01/15 10:03:19;;;;;;;;;4.00;0.00;;;;;8.27;62.38;100294.44;5082443;27;47040;-62
2023/01/15 10:05:54;;;;;;;;;1.25;0.00;;;;;8.33;63.00;100308.28;5085966;27;45563;-63
2023/01/15 10:08:31;;;;;;;;;4.00;0.00;;;;;8.33;62.83;100289.75;5091464;27;45621;-64
2023/01/15 10:12:33;;;;;;;;;0.50;0.50;;;;;8.41;62.75;100306.16;5082488;27;45471;-62
2023/01/15 10:14:22;;;;;;;;;0.00;0.00;;;;;8.46;62.54;100285.56;5076450;27;45502;-64
2023/01/15 10:16:48;;;;;;;;;1.00;0.00;;;;;8.34;62.87;100267.66;5078924;27;45463;-63
2023/01/15 10:19:13;;;;;;;;;1.50;0.00;;;;;8.46;62.78;100305.00;5091181;27;45492;-62
2023/01/15 10:22:03;;;;;;;;;1.00;0.00;;;;;8.59;62.25;100315.78;5083090;27;46972;-61
2023/01/15 10:24:51;;;;;;;;;1.00;1.00;;;;;8.66;62.58;100284.53;5085686;27;45675;-62
2023/01/15 10:27:21;;;;;;;;;1.25;0.00;;;;;8.61;62.95;100281.28;5080013;27;45486;-62
2023/01/15 10:30:24;;;;;;;;;1.75;0.00;;;;;8.70;61.42;100273.66;5081204;27;45534;-62
2023/01/15 10:32:57;;;;;;;;;0.00;0.00;;;;;8.80;62.17;100287.31;5088859;27;45454;-61
2023/01/15 10:35:48;;;;;;;;;0.00;0.00;;;;;8.90;61.78;100292.97;5093913;27;45524;-63
2023/01/15 10:38:34;;;;;;;;;0.25;0.00;;;;;8.94;61.21;100290.06;5074379;27;45667;-61
2023/01/15 10:41:13;;;;;;;;;1.00;0.00;;;;;9.05;61.68;100293.00;5086568;27;45398;-64
2023/01/15 10:43:55;;;;;;;;;2.75;0.00;;;;;9.12;62.23;100282.91;5076714;27;45431;-62
2023/01/15 10:46:28;;;;;;;;;1.00;0.00;;;;;9.02;61.63;100289.66;5088818;27;46917;-61
2023/01/15 10:49:02;;;;;;;;;0.00;0.00;;;;;9.06;60.73;100277.94;5093891;27;45810;-61
2023/01/15 10:51:36;;;;;;;;;0.00;0.00;;;;;9.12;60.72;100293.53;5095101;27;45395;-64
2023/01/15 10:54:19;;;;;;;;;2.50;0.00;;;;;9.33;61.27;100302.94;5100925;27;45274;-63
2023/01/15 10:57:11;;;;;;;;;0.00;0.00;;;;;9.42;59.50;100313.06;5078206;27;45326;-64
2023/01/15 10:59:43;;;;;;;;;0.00;0.00;;;;;9.41;60.93;100278.63;5080066;27;45355;-56
2023/01/15 11:02:29;;;;;;;;;0.00;0.00;;;;;9.48;60.60;100295.06;5082757;27;45283;-61
2023/01/15 11:04:55;;;;;;;;;0.00;0.00;;;;;9.57;60.86;100299.88;5098750;27;46215;-60
2023/01/15 11:07:43;;;;;;;;;0.25;0.00;;;;;9.72;60.55;100293.69;5099615;27;45525;-61
2023/01/15 11:10:16;;;;;;;;;1.00;0.00;;;;;9.82;59.87;100296.66;5100624;27;45551;-60
2023/01/15 11:21:17;;;;;;;;;0.50;0.50;;;;;9.86;58.33;100283.09;5091398;27;45360;-62
2023/01/15 11:23:42;;;;;;;;;0.00;0.00;;;;;9.86;59.13;100259.22;5097316;27;45567;-65
2023/01/15 11:26:09;;;;;;;;;0.00;0.00;;;;;9.85;59.66;100269.91;5098959;27;45515;-62
2023/01/15 11:28:39;;;;;;;;;5.00;1.00;;;;;9.82;59.67;100273.63;5083740;27;45495;-61
2023/01/15 11:31:05;;;;;;;;;0.00;0.00;;;;;9.85;60.28;100276.09;5090983;27;45190;-60
2023/01/15 11:33:31;;;;;;;;;1.00;1.00;;;;;9.97;58.40;100277.19;5093950;27;45486;-62
2023/01/15 11:36:02;;;;;;;;;0.00;0.00;;;;;10.02;58.36;100265.31;5099966;27;45381;-63
2023/01/15 11:38:30;;;;;;;;;0.00;0.00;;;;;10.04;60.56;100254.63;5100009;27;45485;-59
2023/01/15 11:40:58;;;;;;;;;2.25;0.00;;;;;10.04;58.21;100263.47;5100268;27;45350;-65
2023/01/15 11:52:05;;;;;;;;;2.75;1.00;;;;;10.19;56.79;100243.09;5094806;27;45371;-61
2023/01/15 11:54:36;;;;;;;;;0.00;0.00;;;;;10.09;56.82;100233.09;5080250;27;45478;-65
2023/01/15 11:57:01;;;;;;;;;1.25;1.00;;;;;10.27;57.59;100250.63;5099504;27;45357;-62
2023/01/15 11:59:27;;;;;;;;;0.75;0.75;;;;;10.34;56.59;100257.28;5078819;27;45886;-63
2023/01/15 12:01:58;;;;;;;;;2.00;0.00;;;;;10.40;57.58;100258.69;5095957;27;45517;-62
2023/01/15 12:04:38;;;;;;;;;0.33;0.00;;;;;10.41;58.24;100241.81;5098389;27;45391;-61
2023/01/15 12:07:05;;;;;;;;;1.50;1.25;;;;;10.46;58.09;100235.28;5096365;27;45309;-60
2023/01/15 12:10:02;;;;;;;;;0.67;0.67;;;;;10.57;56.88;100230.16;5078289;27;45491;-60
2023/01/15 12:12:38;;;;;;;;;0.00;0.00;;;;;10.62;57.70;100212.09;5095551;27;45456;-60
2023/01/15 12:15:39;;;;;;;;;1.00;1.00;;;;;10.63;56.00;100218.28;5116616;27;45446;-56
2023/01/15 12:18:23;;;;;;;;;0.00;0.00;;;;;10.70;56.00;100224.09;5110743;27;45566;-62
2023/01/15 12:21:11;;;;;;;;;0.25;0.25;;;;;10.72;54.23;100206.22;5090863;27;46392;-65
2023/01/15 12:23:46;;;;;;;;;1.00;1.00;;;;;10.66;56.69;100190.63;5093166;27;45528;-62
2023/01/15 12:26:28;;;;;;;;;0.00;0.00;;;;;10.75;55.33;100195.38;5096150;27;45595;-60
2023/01/15 12:29:26;;;;;;;;;0.75;0.75;;;;;10.83;53.96;100196.63;5094591;27;45489;-61
2023/01/15 12:32:00;;;;;;;;;1.50;0.00;;;;;10.86;55.51;100168.97;5091497;27;46110;-65
2023/01/15 12:34:41;;;;;;;;;0.00;0.00;;;;;11.05;53.64;100180.13;5087916;27;45440;-61
2023/01/15 12:37:12;;;;;;;;;1.00;1.00;;;;;11.16;55.64;100172.28;5088376;27;45546;-61
2023/01/15 12:39:51;;;;;;;;;0.67;0.00;;;;;11.18;53.56;100181.03;5095894;27;45386;-66